createdAt,value
2023-03-26T00:00:40.602Z,3.67
2023-03-26T00:05:42.415Z,3.78
2023-03-26T00:10:44.141Z,3.67
2023-03-26T00:15:45.462Z,4.03
2023-03-26T00:20:47.324Z,4.00
2023-03-26T00:25:50.857Z,4.50
2023-03-26T00:31:02.381Z,3.40
2023-03-26T00:36:05.764Z,3.70
2023-03-26T00:41:17.313Z,3.33
2023-03-26T00:46:19.408Z,4.07
2023-03-26T00:51:21.130Z,3.05
2023-03-26T00:56:22.472Z,3.35
2023-03-26T01:01:28.672Z,4.07
2023-03-26T01:06:35.783Z,3.85
2023-03-26T01:11:37.699Z,3.50
2023-03-26T01:16:45.093Z,3.28
2023-03-26T01:21:47.233Z,3.25
2023-03-26T01:26:57.257Z,3.72
2023-03-26T01:32:13.929Z,2.67
2023-03-26T01:37:15.342Z,2.47
2023-03-26T01:42:20.827Z,2.67
2023-03-26T01:47:22.632Z,2.17
2023-03-26T01:52:26.120Z,2.80
2023-03-26T01:57:40.186Z,2.50
2023-03-26T02:02:50.777Z,2.42
2023-03-26T02:07:52.256Z,1.60
2023-03-26T02:12:53.921Z,1.77
2023-03-26T02:17:55.341Z,1.70
2023-03-26T02:22:57.338Z,1.60
2023-03-26T02:27:58.698Z,1.50
2023-03-26T02:33:00.176Z,2.60
2023-03-26T02:38:01.924Z,1.98
2023-03-26T02:43:03.245Z,1.80
2023-03-26T02:48:04.848Z,1.63
2023-03-26T02:53:06.379Z,1.63
2023-03-26T02:58:07.841Z,1.10
2023-03-26T03:03:09.502Z,1.40
2023-03-26T03:08:11.206Z,1.40
2023-03-26T03:13:12.582Z,2.67
2023-03-26T03:18:13.985Z,2.15
2023-03-26T03:23:15.959Z,2.17
2023-03-26T03:28:18.244Z,3.17
2023-03-26T03:33:23.114Z,3.10
2023-03-26T03:38:25.255Z,2.40
2023-03-26T03:43:27.455Z,2.30
2023-03-26T03:48:29.153Z,3.03
2023-03-26T03:53:30.529Z,2.83
2023-03-26T03:58:34.515Z,4.20
2023-03-26T04:03:38.863Z,2.63
2023-03-26T04:08:40.782Z,3.05
2023-03-26T04:13:42.157Z,2.75
2023-03-26T04:18:45.102Z,3.03
2023-03-26T04:23:46.490Z,2.90
2023-03-26T04:28:49.296Z,2.40
2023-03-26T04:33:54.358Z,2.63
2023-03-26T04:38:58.254Z,2.73
2023-03-26T04:44:01.982Z,3.65
2023-03-26T04:49:03.524Z,3.23
2023-03-26T04:54:07.247Z,3.33
2023-03-26T04:59:13.747Z,2.97
2023-03-26T05:04:15.354Z,3.60
2023-03-26T05:09:17.033Z,2.43
2023-03-26T05:14:19.111Z,3.87
2023-03-26T05:19:21.206Z,3.67
2023-03-26T05:24:24.552Z,3.33
2023-03-26T05:29:26.947Z,2.70
2023-03-26T05:34:28.474Z,3.60
2023-03-26T05:39:29.903Z,3.93
2023-03-26T05:44:31.284Z,5.03
2023-03-26T05:49:32.659Z,2.67
2023-03-26T05:54:33.988Z,2.67
2023-03-26T05:59:36.636Z,2.20
2023-03-26T06:04:41.018Z,2.73
2023-03-26T06:09:42.561Z,3.33
2023-03-26T06:14:44.004Z,3.17
2023-03-26T06:19:45.364Z,3.67
2023-03-26T06:24:46.719Z,2.83
2023-03-26T06:29:48.161Z,4.37
2023-03-26T06:34:49.578Z,2.90
2023-03-26T06:39:51.091Z,3.13
2023-03-26T06:44:52.505Z,3.10
2023-03-26T06:49:53.906Z,2.92
2023-03-26T06:54:55.279Z,2.50
2023-03-26T06:59:56.686Z,3.25
2023-03-26T07:04:58.117Z,2.45
2023-03-26T07:09:59.448Z,2.92
2023-03-26T07:15:02.757Z,3.10
2023-03-26T07:20:05.393Z,2.40
2023-03-26T07:25:07.138Z,2.85
2023-03-26T07:30:12.377Z,2.88
2023-03-26T07:35:19.125Z,1.90
2023-03-26T07:40:34.555Z,2.40
2023-03-26T07:45:39.691Z,2.45
2023-03-26T07:50:41.291Z,2.95
2023-03-26T07:55:54.793Z,2.58
2023-03-26T08:00:59.509Z,3.27
2023-03-26T08:11:08.179Z,2.80
2023-03-26T08:16:16.821Z,2.47
2023-03-26T08:21:33.851Z,2.75
2023-03-26T08:26:47.689Z,2.85
2023-03-26T08:31:49.731Z,2.70
2023-03-26T08:36:51.516Z,2.15
2023-03-26T08:42:11.209Z,2.50
2023-03-26T08:47:28.064Z,2.65
2023-03-26T08:52:35.833Z,2.33
2023-03-26T08:57:55.953Z,2.72
2023-03-26T09:02:57.364Z,4.03
2023-03-26T09:08:01.913Z,3.40
2023-03-26T09:18:16.564Z,2.63
2023-03-26T09:23:36.692Z,2.80
2023-03-26T09:28:38.061Z,2.25
2023-03-26T09:33:52.253Z,2.10
2023-03-26T09:39:00.374Z,3.40
2023-03-26T09:44:11.094Z,2.20
2023-03-26T09:49:12.463Z,2.35
2023-03-26T09:54:18.898Z,13.27
2023-03-26T09:59:33.996Z,3.78
2023-03-26T10:04:40.368Z,2.15
2023-03-26T10:09:45.021Z,1.60
2023-03-26T10:14:51.906Z,3.70
2023-03-26T10:20:09.584Z,2.30
2023-03-26T10:25:10.980Z,2.50
2023-03-26T10:30:18.020Z,2.95
2023-03-26T10:35:37.043Z,2.45
2023-03-26T10:40:50.560Z,2.53
2023-03-26T10:45:55.150Z,2.50
2023-03-26T10:51:09.098Z,2.25
2023-03-26T10:56:26.496Z,2.40
2023-03-26T11:01:46.932Z,2.30
2023-03-26T11:06:58.980Z,2.47
2023-03-26T11:12:26.584Z,2.33
2023-03-26T11:17:40.454Z,1.80
2023-03-26T11:22:55.183Z,1.98
2023-03-26T11:28:04.971Z,2.75
2023-03-26T11:33:09.830Z,2.13
2023-03-26T11:38:16.259Z,1.58
2023-03-26T11:43:20.807Z,2.30
2023-03-26T11:48:34.024Z,2.35
2023-03-26T11:53:38.691Z,2.80
2023-03-26T11:58:42.926Z,2.78
2023-03-26T12:08:46.233Z,2.58
2023-03-26T12:13:56.491Z,2.38
2023-03-26T12:19:08.153Z,2.58
2023-03-26T12:24:25.002Z,2.20
2023-03-26T12:29:27.804Z,1.92
2023-03-26T12:34:35.456Z,2.55
2023-03-26T12:40:06.601Z,2.13
2023-03-26T12:45:01.050Z,1.73
2023-03-26T12:50:03.704Z,3.25
2023-03-26T12:55:14.057Z,3.03
2023-03-26T13:00:21.401Z,1.45
2023-03-26T13:05:35.202Z,2.55
2023-03-26T13:10:39.571Z,2.63
2023-03-26T13:15:44.622Z,1.95
2023-03-26T13:20:46.474Z,1.40
2023-03-26T13:26:06.066Z,1.50
2023-03-26T13:31:14.868Z,1.70
2023-03-26T13:36:24.484Z,1.75
2023-03-26T13:41:34.145Z,1.60
2023-03-26T13:46:36.552Z,1.20
2023-03-26T13:51:43.815Z,2.00
2023-03-26T13:57:04.862Z,2.25
2023-03-26T14:02:11.622Z,2.08
2023-03-26T14:07:23.363Z,2.95
2023-03-26T14:12:40.447Z,4.75
2023-03-26T14:17:47.728Z,2.10
2023-03-26T14:24:22.546Z,1.20
2023-03-26T14:29:29.117Z,1.00
2023-03-26T14:34:39.540Z,1.52
2023-03-26T14:39:43.954Z,1.05
2023-03-26T14:54:55.442Z,1.00
2023-03-26T15:00:15.548Z,0.90
2023-03-26T15:05:37.609Z,0.90
2023-03-26T15:10:46.914Z,0.77
2023-03-26T15:15:54.710Z,1.50
2023-03-26T15:20:59.374Z,0.85
2023-03-26T15:26:19.179Z,0.90
2023-03-26T15:31:23.288Z,1.08
2023-03-26T15:36:34.450Z,0.65
2023-03-26T15:41:45.636Z,0.60
2023-03-26T15:46:53.345Z,0.47
2023-03-26T15:52:13.333Z,0.43
2023-03-26T15:57:24.838Z,0.73
2023-03-26T16:02:29.616Z,1.60
2023-03-26T16:07:31.017Z,1.20
2023-03-26T16:12:34.568Z,1.08
2023-03-26T16:17:54.668Z,1.23
2023-03-26T16:22:59.612Z,1.60
2023-03-26T16:28:16.934Z,1.77
2023-03-26T16:33:23.371Z,0.43
2023-03-26T16:38:27.274Z,0.45
2023-03-26T16:43:46.737Z,0.60
2023-03-26T16:49:01.077Z,0.50
2023-03-26T16:59:09.381Z,0.50
2023-03-26T17:04:17.077Z,1.00
2023-03-26T17:09:21.946Z,0.43
2023-03-26T17:14:42.702Z,0.30
2023-03-26T17:19:50.260Z,0.20
2023-03-26T17:24:51.629Z,0.50
2023-03-26T17:29:52.996Z,0.68
2023-03-26T17:34:55.776Z,0.50
2023-03-26T17:40:12.473Z,0.40
2023-03-26T17:45:17.519Z,0.50
2023-03-26T17:50:37.039Z,0.60
2023-03-26T17:55:39.635Z,0.57
2023-03-26T18:00:45.164Z,0.88
2023-03-26T18:05:47.692Z,0.70
2023-03-26T18:11:09.314Z,1.00
2023-03-26T18:16:21.759Z,0.82
2023-03-26T18:21:25.552Z,0.77
2023-03-26T18:26:32.799Z,0.60
2023-03-26T18:31:34.222Z,0.50
2023-03-26T18:36:38.415Z,1.10
2023-03-26T18:41:41.765Z,0.90
2023-03-26T18:46:43.499Z,0.70
2023-03-26T18:51:56.177Z,0.80
2023-03-26T18:57:15.417Z,0.70
2023-03-26T19:02:18.860Z,0.87
2023-03-26T19:07:22.431Z,0.70
2023-03-26T19:12:28.629Z,1.20
2023-03-26T19:17:31.801Z,1.57
2023-03-26T19:22:33.285Z,1.23
2023-03-26T19:27:38.341Z,1.00
2023-03-26T19:32:39.745Z,0.83
2023-03-26T19:37:49.368Z,2.93
2023-03-26T19:42:50.919Z,1.60
2023-03-26T19:51:18.618Z,1.10
2023-03-26T19:53:17.736Z,1.37
2023-03-26T19:58:19.799Z,1.70
2023-03-26T20:03:27.377Z,1.00
2023-03-26T20:08:29.018Z,1.23
2023-03-26T20:13:31.090Z,1.23
2023-03-26T20:18:35.132Z,1.70
2023-03-26T20:23:37.022Z,1.08
2023-03-26T20:28:47.310Z,1.10
2023-03-26T20:33:50.591Z,0.93
2023-03-26T20:38:52.274Z,1.27
2023-03-26T20:43:53.603Z,1.50
2023-03-26T20:48:56.497Z,1.73
2023-03-26T20:53:57.956Z,1.40
2023-03-26T21:04:04.336Z,1.15
2023-03-26T21:09:06.080Z,1.80
2023-03-26T21:14:17.078Z,1.57
2023-03-26T21:19:18.740Z,1.47
2023-03-26T21:24:20.224Z,2.00
2023-03-26T21:29:21.997Z,1.63
2023-03-26T21:34:23.548Z,2.97
2023-03-26T21:39:25.115Z,2.50
2023-03-26T21:44:27.152Z,1.67
2023-03-26T21:49:28.625Z,1.20
2023-03-26T21:54:31.210Z,0.90
2023-03-26T21:59:36.493Z,1.37
2023-03-26T22:04:37.862Z,1.60
2023-03-26T22:09:39.502Z,1.60
2023-03-26T22:14:40.865Z,1.23
2023-03-26T22:19:42.413Z,1.33
2023-03-26T22:24:43.954Z,1.20
2023-03-26T22:29:46.443Z,0.87
2023-03-26T22:34:47.833Z,0.70
2023-03-26T22:39:49.149Z,1.07
2023-03-26T22:44:50.523Z,1.30
2023-03-26T22:49:51.956Z,0.80
2023-03-26T22:54:53.533Z,0.67
2023-03-26T22:59:54.887Z,0.97
2023-03-26T23:04:56.337Z,1.20
2023-03-26T23:09:57.993Z,1.17
2023-03-26T23:15:00.717Z,0.97
2023-03-26T23:20:05.999Z,1.00
2023-03-26T23:25:07.755Z,0.60
2023-03-26T23:30:10.704Z,0.77
2023-03-26T23:35:12.188Z,0.80
2023-03-26T23:40:13.747Z,0.73
2023-03-26T23:45:16.424Z,1.10
2023-03-26T23:50:18.029Z,1.33
2023-03-26T23:55:19.348Z,1.10
